Time;durP1;ratioP1;P1;durP2;ratioP2;P2;SDS_P1;SDS_P2;PMS_P1;PMS_P2;Temp;Humidity;BMP_temperature;BMP_pressure;BME280_temperature;BME280_humidity;BME280_pressure;Samples;Min_cycle;Max_cycle;Signal;HPM_P1;HPM_P2
2024/01/15 00:00:15;;;;;;;;;;;;;;;2.42;88.07;98951.53;4196106;28;19929;-70
2024/01/15 00:02:17;;;;;;;;;;;;;;;2.44;88.37;98945.00;4195391;28;20023;-71
2024/01/15 00:04:18;;;;;;;;;;;;;;;2.44;87.96;98934.34;4195719;28;20501;-70
2024/01/15 00:06:21;;;;;;;;;;;;;;;2.41;88.14;98924.03;4195487;28;19929;-70
2024/01/15 00:08:23;;;;;;;;;;;;;;;2.40;88.43;98924.19;4195527;28;20019;-70
2024/01/15 00:10:26;;;;;;;;;;;;;;;2.38;88.25;98921.72;4195742;28;20039;-71
2024/01/15 00:12:28;;;;;;;;;;;;;;;2.39;88.44;98915.38;4195327;28;20036;-71
2024/01/15 00:14:30;;;;;;;;;;;;;;;2.37;88.53;98916.53;4195848;28;20011;-70
2024/01/15 00:16:32;;;;;;;;;;;;;;;2.36;89.09;98906.91;4195633;28;20035;-70
2024/01/15 00:18:34;;;;;;;;;;;;;;;2.36;89.09;98901.59;4195946;28;19955;-70
2024/01/15 00:20:36;;;;;;;;;;;;;;;2.35;89.20;98895.41;4195804;28;19924;-70
2024/01/15 00:22:37;;;;;;;;;;;;;;;2.34;89.10;98899.09;4195188;28;20007;-71
2024/01/15 00:24:39;;;;;;;;;;;;;;;2.34;89.23;98894.56;4177279;28;20031;-71
2024/01/15 00:26:41;;;;;;;;;;;;;;;2.34;89.36;98899.09;4195245;28;20378;-70
2024/01/15 00:28:43;;;;;;;;;;;;;;;2.33;89.19;98887.56;4199138;28;20015;-71
2024/01/15 00:30:45;;;;;;;;;;;;;;;2.32;89.12;98882.41;4198747;28;20019;-70
2024/01/15 00:32:47;;;;;;;;;;;;;;;2.30;89.07;98877.28;4198557;28;20011;-71
2024/01/15 00:34:50;;;;;;;;;;;;;;;2.29;89.37;98885.44;4199378;28;20375;-70
2024/01/15 00:36:52;;;;;;;;;;;;;;;2.30;89.22;98873.78;4198728;28;20456;-70
2024/01/15 00:38:54;;;;;;;;;;;;;;;2.28;89.42;98876.59;4198945;28;19996;-71
2024/01/15 00:40:57;;;;;;;;;;;;;;;2.29;89.37;98872.13;4197594;28;19925;-70
2024/01/15 00:43:00;;;;;;;;;;;;;;;2.28;89.37;98868.63;4198791;28;20016;-71
2024/01/15 00:45:01;;;;;;;;;;;;;;;2.23;89.40;98857.66;4199263;28;20028;-71
2024/01/15 00:47:03;;;;;;;;;;;;;;;2.29;89.19;98859.63;4198746;28;19924;-70
2024/01/15 00:49:06;;;;;;;;;;;;;;;2.28;89.16;98849.97;4198163;28;20015;-70
2024/01/15 00:51:08;;;;;;;;;;;;;;;2.26;89.02;98853.81;4198730;28;20023;-71
2024/01/15 00:53:10;;;;;;;;;;;;;;;2.25;89.14;98852.16;4198356;28;19955;-71
2024/01/15 00:55:11;;;;;;;;;;;;;;;2.25;88.94;98844.16;4198210;28;20015;-70
2024/01/15 00:57:12;;;;;;;;;;;;;;;2.26;89.00;98836.00;4198990;28;19928;-70
2024/01/15 00:59:16;;;;;;;;;;;;;;;2.28;88.70;98849.16;4198339;28;20003;-71
2024/01/15 01:01:18;;;;;;;;;;;;;;;2.28;88.81;98852.63;4168220;28;19963;-71
2024/01/15 01:03:20;;;;;;;;;;;;;;;2.28;88.74;98839.31;4198922;28;20469;-70
2024/01/15 01:05:24;;;;;;;;;;;;;;;2.26;88.63;98835.19;4198414;28;20015;-71
2024/01/15 01:07:26;;;;;;;;;;;;;;;2.26;88.51;98838.66;4198424;28;19992;-70
2024/01/15 01:09:29;;;;;;;;;;;;;;;2.29;88.32;98829.50;4198218;28;20016;-70
2024/01/15 01:11:31;;;;;;;;;;;;;;;2.28;88.36;98825.16;4197394;28;20027;-70
2024/01/15 01:13:34;;;;;;;;;;;;;;;2.33;88.10;98828.16;4197975;28;20024;-70
2024/01/15 01:15:38;;;;;;;;;;;;;;;2.31;88.34;98848.81;4197534;28;20015;-70
2024/01/15 01:17:40;;;;;;;;;;;;;;;2.29;88.45;98835.66;4198397;28;20015;-71
2024/01/15 01:19:42;;;;;;;;;;;;;;;2.30;88.33;98833.81;4198220;28;20731;-70
2024/01/15 01:21:43;;;;;;;;;;;;;;;2.30;88.38;98824.00;4198010;28;19939;-70
2024/01/15 01:23:45;;;;;;;;;;;;;;;2.28;88.17;98819.84;4197472;28;20020;-70
2024/01/15 01:25:47;;;;;;;;;;;;;;;2.26;88.41;98830.66;4196774;28;20027;-70
2024/01/15 01:27:49;;;;;;;;;;;;;;;2.25;88.49;98834.31;4197445;28;20024;-70
2024/01/15 01:29:51;;;;;;;;;;;;;;;2.26;88.27;98813.88;4196547;28;20019;-70
2024/01/15 01:31:56;;;;;;;;;;;;;;;2.26;88.53;98827.19;4196446;28;20027;-71
2024/01/15 01:33:57;;;;;;;;;;;;;;;2.29;88.38;98824.19;4197707;28;20338;-72
2024/01/15 01:35:59;;;;;;;;;;;;;;;2.25;88.21;98836.16;4197618;28;20043;-71
2024/01/15 01:38:01;;;;;;;;;;;;;;;2.23;88.45;98832.84;4197060;28;20030;-71
2024/01/15 01:40:03;;;;;;;;;;;;;;;2.22;88.76;98831.19;4196291;28;20023;-71
2024/01/15 01:42:06;;;;;;;;;;;;;;;2.21;88.77;98834.84;4197376;28;19928;-71
2024/01/15 01:44:08;;;;;;;;;;;;;;;2.20;88.99;98827.88;4197644;28;20023;-72
2024/01/15 01:46:10;;;;;;;;;;;;;;;2.20;89.18;98827.88;4198061;28;20376;-71
2024/01/15 01:48:13;;;;;;;;;;;;;;;2.17;89.07;98821.84;4197204;28;20007;-71
2024/01/15 01:50:15;;;;;;;;;;;;;;;2.16;89.63;98824.69;4197397;28;20022;-71
2024/01/15 01:52:17;;;;;;;;;;;;;;;2.15;89.37;98818.53;4196821;28;20019;-71
2024/01/15 01:54:19;;;;;;;;;;;;;;;2.15;89.93;98831.03;4197199;28;20042;-71
2024/01/15 01:56:21;;;;;;;;;;;;;;;2.15;89.67;98823.88;4196878;28;20008;-71
2024/01/15 01:58:22;;;;;;;;;;;;;;;2.16;89.67;98827.34;4197193;28;20019;-71
2024/01/15 02:00:24;;;;;;;;;;;;;;;2.14;89.95;98819.53;4197221;28;20024;-71
2024/01/15 02:02:29;;;;;;;;;;;;;;;2.11;90.23;98822.53;4197541;28;20023;-71
2024/01/15 02:04:33;;;;;;;;;;;;;;;2.11;90.16;98816.38;4197133;28;20442;-71
2024/01/15 02:06:35;;;;;;;;;;;;;;;2.10;90.14;98823.56;4195567;28;20018;-72
2024/01/15 02:08:37;;;;;;;;;;;;;;;2.11;90.37;98814.53;4196811;28;20090;-72
2024/01/15 02:10:39;;;;;;;;;;;;;;;2.11;90.25;98822.53;4196915;28;20019;-72
2024/01/15 02:12:41;;;;;;;;;;;;;;;2.11;89.99;98813.72;4178978;28;20031;-72
2024/01/15 02:14:42;;;;;;;;;;;;;;;2.13;89.98;98814.38;4196755;28;20011;-71
2024/01/15 02:16:44;;;;;;;;;;;;;;;2.12;89.86;98804.75;4197782;28;20027;-71
2024/01/15 02:18:45;;;;;;;;;;;;;;;2.10;89.82;98807.56;4195450;28;20035;-72
2024/01/15 02:20:49;;;;;;;;;;;;;;;2.11;89.69;98819.03;4195844;28;20014;-71
2024/01/15 02:22:50;;;;;;;;;;;;;;;2.10;89.17;98812.03;4196202;28;20525;-71
2024/01/15 02:24:53;;;;;;;;;;;;;;;2.08;89.62;98809.56;4196990;28;20015;-71
2024/01/15 02:26:55;;;;;;;;;;;;;;;2.12;89.63;98812.72;4197473;28;20027;-71
2024/01/15 02:28:57;;;;;;;;;;;;;;;2.11;89.28;98805.72;4197212;28;20011;-71
2024/01/15 02:30:58;;;;;;;;;;;;;;;2.10;89.17;98814.72;4170837;28;20016;-71
2024/01/15 02:33:00;;;;;;;;;;;;;;;2.08;88.96;98822.88;4196485;28;20146;-71
2024/01/15 02:35:01;;;;;;;;;;;;;;;2.09;88.90;98818.41;4197050;28;20028;-71
2024/01/15 02:37:03;;;;;;;;;;;;;;;2.09;88.61;98818.41;4197117;28;20382;-71
2024/01/15 02:39:05;;;;;;;;;;;;;;;2.09;88.63;98803.25;4196745;28;20453;-71
2024/01/15 02:41:08;;;;;;;;;;;;;;;2.08;88.46;98814.88;4195870;28;20023;-71
2024/01/15 02:43:11;;;;;;;;;;;;;;;2.08;88.30;98803.41;4195146;28;20404;-71
2024/01/15 02:45:13;;;;;;;;;;;;;;;2.09;88.14;98808.56;4196703;28;20454;-71
2024/01/15 02:47:14;;;;;;;;;;;;;;;2.11;87.58;98803.88;4197088;28;20022;-71
2024/01/15 02:49:17;;;;;;;;;;;;;;;2.08;87.60;98793.56;4196499;28;19924;-72
2024/01/15 02:51:18;;;;;;;;;;;;;;;2.08;87.52;98792.75;4196477;28;20011;-71
2024/01/15 02:53:20;;;;;;;;;;;;;;;2.09;87.37;98815.72;4196104;28;20028;-71
2024/01/15 02:55:22;;;;;;;;;;;;;;;2.09;87.32;98810.41;4196615;28;20422;-71
2024/01/15 02:57:26;;;;;;;;;;;;;;;2.07;86.98;98810.56;4196606;28;20026;-71
2024/01/15 02:59:28;;;;;;;;;;;;;;;2.05;87.02;98793.91;4196263;28;20011;-71
2024/01/15 03:01:30;;;;;;;;;;;;;;;2.04;87.03;98788.75;4196535;28;20019;-71
2024/01/15 03:03:33;;;;;;;;;;;;;;;2.06;86.80;98795.59;4195656;28;19935;-71
2024/01/15 03:05:34;;;;;;;;;;;;;;;2.05;86.78;98795.75;4171427;28;20055;-71
2024/01/15 03:07:36;;;;;;;;;;;;;;;2.03;86.72;98798.59;4196757;28;20011;-71
2024/01/15 03:09:38;;;;;;;;;;;;;;;2.05;86.48;98790.44;4178609;28;19963;-71
2024/01/15 03:11:40;;;;;;;;;;;;;;;2.07;86.59;98783.94;4195149;28;20023;-71
2024/01/15 03:13:43;;;;;;;;;;;;;;;2.04;86.60;98784.28;4196169;28;20342;-71
2024/01/15 03:15:45;;;;;;;;;;;;;;;2.04;86.43;98794.09;4196697;28;20074;-71
2024/01/15 03:17:47;;;;;;;;;;;;;;;2.04;86.30;98786.94;4196713;28;20019;-71
2024/01/15 03:19:50;;;;;;;;;;;;;;;2.04;86.34;98772.78;4196141;28;20015;-71
2024/01/15 03:21:52;;;;;;;;;;;;;;;2.04;86.24;98792.28;4195963;28;20019;-71
2024/01/15 03:23:54;;;;;;;;;;;;;;;2.03;85.99;98787.94;4196343;28;20015;-71
2024/01/15 03:25:56;;;;;;;;;;;;;;;2.04;86.10;98786.94;4196948;28;20019;-71
2024/01/15 03:27:58;;;;;;;;;;;;;;;2.04;85.86;98773.63;4196354;28;19928;-71
2024/01/15 03:30:03;;;;;;;;;;;;;;;2.03;85.43;98769.28;4195857;28;20060;-71
2024/01/15 03:32:05;;;;;;;;;;;;;;;2.02;85.56;98770.28;4194607;28;20023;-71
2024/01/15 03:34:07;;;;;;;;;;;;;;;2.03;85.25;98776.47;4196198;28;20015;-71
2024/01/15 03:36:10;;;;;;;;;;;;;;;2.00;85.51;98774.16;4195939;28;20011;-71
2024/01/15 03:38:12;;;;;;;;;;;;;;;1.98;85.53;98779.63;4195742;28;20469;-71
2024/01/15 03:40:13;;;;;;;;;;;;;;;1.96;85.54;98763.84;4195581;28;20031;-71
2024/01/15 03:42:15;;;;;;;;;;;;;;;1.95;85.38;98772.00;4195770;28;20019;-71
2024/01/15 03:44:18;;;;;;;;;;;;;;;1.98;85.55;98766.31;4195831;28;20418;-71
2024/01/15 03:46:21;;;;;;;;;;;;;;;1.96;85.44;98785.13;4195206;28;20562;-71
2024/01/15 03:48:23;;;;;;;;;;;;;;;1.97;85.30;98775.31;4194243;28;20080;-71
2024/01/15 03:50:25;;;;;;;;;;;;;;;1.98;85.63;98766.31;4196051;28;20016;-71
2024/01/15 03:52:27;;;;;;;;;;;;;;;1.99;85.11;98757.31;4196102;28;20068;-71
2024/01/15 03:54:31;;;;;;;;;;;;;;;1.97;85.35;98762.84;4195791;28;20027;-71
2024/01/15 03:56:32;;;;;;;;;;;;;;;1.97;85.10;98760.19;4195831;28;20033;-71
2024/01/15 03:58:34;;;;;;;;;;;;;;;1.97;85.15;98765.50;4195440;28;19950;-71
2024/01/15 04:00:36;;;;;;;;;;;;;;;1.99;85.26;98759.97;4194842;28;20054;-71
2024/01/15 04:02:40;;;;;;;;;;;;;;;2.00;85.15;98745.69;4195208;28;19924;-71
2024/01/15 04:04:42;;;;;;;;;;;;;;;1.99;85.09;98752.00;4194814;28;19928;-71
2024/01/15 04:06:43;;;;;;;;;;;;;;;2.01;84.87;98736.69;4195414;28;20007;-71
2024/01/15 04:08:45;;;;;;;;;;;;;;;1.98;85.07;98734.38;4196205;28;19925;-71
2024/01/15 04:10:47;;;;;;;;;;;;;;;2.00;85.16;98766.97;4194268;28;20023;-71
2024/01/15 04:12:49;;;;;;;;;;;;;;;2.04;85.08;98725.69;4194925;28;20031;-71
2024/01/15 04:14:51;;;;;;;;;;;;;;;2.03;85.01;98731.19;4195211;28;20019;-71
2024/01/15 04:16:56;;;;;;;;;;;;;;;2.03;84.74;98737.34;4195861;28;20018;-71
2024/01/15 04:18:59;;;;;;;;;;;;;;;2.03;84.87;98741.84;4195743;28;20031;-71
2024/01/15 04:21:01;;;;;;;;;;;;;;;2.03;85.01;98724.03;4195873;28;20088;-71
2024/01/15 04:23:03;;;;;;;;;;;;;;;2.02;84.57;98727.69;4195112;28;20028;-71
2024/01/15 04:25:06;;;;;;;;;;;;;;;2.05;84.64;98729.19;4195445;28;19924;-71
2024/01/15 04:27:08;;;;;;;;;;;;;;;2.06;84.57;98720.22;4195710;28;20026;-71
2024/01/15 04:29:10;;;;;;;;;;;;;;;2.06;84.51;98702.38;4177634;28;20019;-71
2024/01/15 04:31:21;;;;;;;;;;;;;;;2.07;84.46;98712.03;4195198;28;20007;-71
2024/01/15 04:33:23;;;;;;;;;;;;;;;2.09;84.34;98714.53;4196177;28;20020;-71
2024/01/15 04:35:29;;;;;;;;;;;;;;;2.08;84.06;98710.19;4196566;28;19997;-71
2024/01/15 04:37:31;;;;;;;;;;;;;;;2.08;84.33;98713.69;4196478;28;20078;-72
2024/01/15 04:39:33;;;;;;;;;;;;;;;2.10;84.00;98719.69;4196491;28;20015;-71
2024/01/15 04:41:35;;;;;;;;;;;;;;;2.08;83.77;98720.84;4195426;28;20051;-71
2024/01/15 04:43:37;;;;;;;;;;;;;;;2.08;83.76;98719.00;4195288;28;20086;-71
2024/01/15 04:45:40;;;;;;;;;;;;;;;2.08;83.74;98735.00;4195628;28;20681;-71
2024/01/15 04:47:42;;;;;;;;;;;;;;;2.09;83.77;98704.72;4195061;28;20012;-71
2024/01/15 04:49:46;;;;;;;;;;;;;;;2.11;83.64;98725.84;4195077;28;20462;-71
2024/01/15 04:51:51;;;;;;;;;;;;;;;2.12;83.74;98716.84;4195674;28;20426;-72
2024/01/15 04:53:52;;;;;;;;;;;;;;;2.11;83.48;98701.88;4195651;28;20023;-71
2024/01/15 04:55:54;;;;;;;;;;;;;;;2.07;83.58;98714.72;4195482;28;19930;-71
2024/01/15 04:57:56;;;;;;;;;;;;;;;2.06;83.20;98697.06;4195625;28;20024;-71
2024/01/15 04:59:58;;;;;;;;;;;;;;;2.05;83.11;98682.06;4195328;28;20016;-71
2024/01/15 05:02:00;;;;;;;;;;;;;;;2.09;83.42;98674.59;4194806;28;20282;-71
2024/01/15 05:04:02;;;;;;;;;;;;;;;2.10;83.30;98694.88;4194270;28;20018;-71
2024/01/15 05:06:04;;;;;;;;;;;;;;;2.06;82.90;98688.25;4195965;28;20031;-71
2024/01/15 05:08:07;;;;;;;;;;;;;;;2.03;83.02;98683.28;4195175;28;20016;-71
2024/01/15 05:10:09;;;;;;;;;;;;;;;2.05;83.13;98708.69;4194197;28;20331;-71
2024/01/15 05:12:11;;;;;;;;;;;;;;;2.04;83.10;98711.53;4193935;28;20032;-71
2024/01/15 05:14:13;;;;;;;;;;;;;;;2.02;82.94;98702.91;4195369;28;19995;-71
2024/01/15 05:16:15;;;;;;;;;;;;;;;2.05;83.26;98719.34;4197381;28;20015;-71
2024/01/15 05:18:16;;;;;;;;;;;;;;;2.04;83.17;98701.75;4198323;28;20372;-71
2024/01/15 05:20:18;;;;;;;;;;;;;;;2.02;83.69;98714.38;4197835;28;20027;-71
2024/01/15 05:22:21;;;;;;;;;;;;;;;2.04;83.56;98698.22;4198135;28;20022;-71
2024/01/15 05:24:26;;;;;;;;;;;;;;;2.02;83.79;98735.69;4198235;28;20019;-71
2024/01/15 05:26:28;;;;;;;;;;;;;;;2.04;84.07;98707.06;4198017;28;20390;-71
2024/01/15 05:28:30;;;;;;;;;;;;;;;2.02;84.47;98710.88;4196131;28;20023;-71
2024/01/15 05:30:32;;;;;;;;;;;;;;;2.01;84.37;98723.38;4197375;28;20012;-71
2024/01/15 05:32:34;;;;;;;;;;;;;;;2.02;84.61;98708.22;4196372;28;20011;-71
2024/01/15 05:34:36;;;;;;;;;;;;;;;2.01;84.40;98695.91;4196447;28;20023;-71
2024/01/15 05:36:38;;;;;;;;;;;;;;;2.02;84.60;98697.56;4197550;28;20023;-71
2024/01/15 05:38:40;;;;;;;;;;;;;;;2.01;84.65;98694.09;4197538;28;20024;-71
2024/01/15 05:40:43;;;;;;;;;;;;;;;2.02;84.59;98685.09;4194708;28;20011;-72
2024/01/15 05:42:45;;;;;;;;;;;;;;;2.00;84.63;98686.28;4195821;28;20023;-71
2024/01/15 05:44:47;;;;;;;;;;;;;;;2.01;84.61;98670.13;4196647;28;20038;-71
2024/01/15 05:46:49;;;;;;;;;;;;;;;2.03;84.51;98693.91;4196416;28;19970;-71
2024/01/15 05:48:51;;;;;;;;;;;;;;;2.05;84.35;98684.75;4197466;28;20015;-71
2024/01/15 05:50:53;;;;;;;;;;;;;;;2.06;84.21;98697.06;4197691;28;20027;-71
2024/01/15 05:52:55;;;;;;;;;;;;;;;2.08;84.22;98678.25;4196413;28;20096;-71
2024/01/15 05:54:56;;;;;;;;;;;;;;;2.06;83.87;98701.56;4195579;28;20011;-71
2024/01/15 05:56:59;;;;;;;;;;;;;;;2.07;84.00;98674.75;4195477;28;20027;-72
2024/01/15 05:59:01;;;;;;;;;;;;;;;2.06;83.64;98665.09;4195362;28;20434;-71
2024/01/15 06:01:03;;;;;;;;;;;;;;;2.10;83.65;98676.22;4194930;28;20430;-71
2024/01/15 06:03:05;;;;;;;;;;;;;;;2.07;84.07;98703.22;4195645;28;20051;-71
2024/01/15 06:05:07;;;;;;;;;;;;;;;2.10;83.86;98703.72;4173129;28;20422;-71
2024/01/15 06:07:09;;;;;;;;;;;;;;;2.09;84.04;98695.91;4196599;28;20011;-71
2024/01/15 06:09:11;;;;;;;;;;;;;;;2.10;84.19;98690.41;4195328;28;20023;-71
2024/01/15 06:11:13;;;;;;;;;;;;;;;2.12;84.55;98684.91;4194633;28;20007;-70
2024/01/15 06:13:16;;;;;;;;;;;;;;;2.09;84.92;98687.91;4195359;28;20019;-70
2024/01/15 06:15:18;;;;;;;;;;;;;;;2.07;85.01;98693.41;4196591;28;20019;-70
2024/01/15 06:17:21;;;;;;;;;;;;;;;2.09;84.89;98683.41;4196190;28;20019;-71
2024/01/15 06:19:23;;;;;;;;;;;;;;;2.08;84.78;98726.19;4196042;28;20095;-71
2024/01/15 06:21:25;;;;;;;;;;;;;;;2.11;85.02;98680.56;4171380;28;20139;-71
2024/01/15 06:23:26;;;;;;;;;;;;;;;2.10;84.75;98692.22;4196396;28;20031;-70
2024/01/15 06:25:28;;;;;;;;;;;;;;;2.08;84.70;98675.59;4195676;28;20353;-71
2024/01/15 06:27:30;;;;;;;;;;;;;;;2.05;84.52;98674.09;4194795;28;19970;-70
2024/01/15 06:29:33;;;;;;;;;;;;;;;2.05;84.75;98683.91;4194893;28;20462;-70
2024/01/15 06:31:35;;;;;;;;;;;;;;;2.06;84.65;98681.09;4194402;28;20017;-70
2024/01/15 06:33:37;;;;;;;;;;;;;;;2.06;84.60;98689.06;4195618;28;20044;-71
2024/01/15 06:35:39;;;;;;;;;;;;;;;2.03;84.83;98697.41;4177455;28;20023;-70
2024/01/15 06:37:40;;;;;;;;;;;;;;;2.04;84.87;98693.75;4196864;28;20023;-70
2024/01/15 06:39:42;;;;;;;;;;;;;;;2.02;85.07;98687.75;4196084;28;19924;-71
2024/01/15 06:41:44;;;;;;;;;;;;;;;2.01;85.07;98696.75;4195490;28;20019;-68
2024/01/15 06:43:46;;;;;;;;;;;;;;;2.02;85.25;98703.72;4195432;28;20011;-69
2024/01/15 06:45:50;;;;;;;;;;;;;;;2.04;85.46;98695.56;4194912;28;20019;-68
2024/01/15 06:47:52;;;;;;;;;;;;;;;2.06;85.49;98690.91;4196612;28;19925;-69
2024/01/15 06:49:54;;;;;;;;;;;;;;;2.04;85.37;98682.25;4196622;28;20016;-69
2024/01/15 06:51:56;;;;;;;;;;;;;;;2.05;85.35;98674.09;4196124;28;20027;-69
2024/01/15 06:53:58;;;;;;;;;;;;;;;2.03;85.25;98692.09;4196369;28;20454;-70
2024/01/15 06:55:59;;;;;;;;;;;;;;;2.05;85.21;98697.22;4196043;28;20567;-69
2024/01/15 06:58:01;;;;;;;;;;;;;;;2.05;85.16;98684.75;4195840;28;19932;-69
2024/01/15 07:00:07;;;;;;;;;;;;;;;2.07;84.95;98693.41;4196000;28;20313;-69
2024/01/15 07:02:12;;;;;;;;;;;;;;;2.08;85.23;98689.72;4195076;28;20023;-70
2024/01/15 07:04:14;;;;;;;;;;;;;;;2.12;84.75;98722.19;4196014;28;20011;-69
2024/01/15 07:06:16;;;;;;;;;;;;;;;2.12;84.67;98695.56;4196004;28;20035;-69
2024/01/15 07:08:18;;;;;;;;;;;;;;;2.12;84.82;98725.66;4196485;28;19940;-69
2024/01/15 07:10:20;;;;;;;;;;;;;;;2.11;84.54;98699.22;4195801;28;20023;-69
2024/01/15 07:12:23;;;;;;;;;;;;;;;2.12;84.40;98707.03;4195047;28;20399;-69
2024/01/15 07:14:24;;;;;;;;;;;;;;;2.12;84.29;98685.72;4194606;28;20031;-69
2024/01/15 07:16:26;;;;;;;;;;;;;;;2.11;84.43;98707.19;4196406;28;20812;-69
2024/01/15 07:18:30;;;;;;;;;;;;;;;2.13;84.09;98707.84;4195624;28;20028;-69
2024/01/15 07:20:31;;;;;;;;;;;;;;;2.11;84.18;98713.34;4196038;28;20012;-69
2024/01/15 07:22:33;;;;;;;;;;;;;;;2.10;83.99;98710.84;4194460;28;19928;-69
2024/01/15 07:24:35;;;;;;;;;;;;;;;2.13;84.34;98726.47;4194619;28;20011;-69
2024/01/15 07:26:37;;;;;;;;;;;;;;;2.12;83.79;98730.19;4193900;28;20014;-69
2024/01/15 07:28:42;;;;;;;;;;;;;;;2.14;83.97;98714.84;4193787;28;20055;-69
2024/01/15 07:30:44;;;;;;;;;;;;;;;2.14;83.80;98721.00;4193949;28;20031;-69
2024/01/15 07:32:45;;;;;;;;;;;;;;;2.14;83.66;98713.00;4193408;28;20027;-69
2024/01/15 07:34:49;;;;;;;;;;;;;;;2.16;83.85;98729.66;4194566;28;19978;-69
2024/01/15 07:36:51;;;;;;;;;;;;;;;2.17;83.51;98731.31;4193590;28;20365;-69
2024/01/15 07:38:53;;;;;;;;;;;;;;;2.16;83.59;98734.13;4194270;28;20022;-68
2024/01/15 07:40:55;;;;;;;;;;;;;;;2.13;83.62;98739.81;4176525;28;20016;-68
2024/01/15 07:42:57;;;;;;;;;;;;;;;2.15;83.24;98753.81;4194846;28;20422;-68
2024/01/15 07:44:59;;;;;;;;;;;;;;;2.15;83.67;98740.47;4193762;28;20007;-68
2024/01/15 07:47:00;;;;;;;;;;;;;;;2.15;83.52;98743.97;4195767;28;20031;-69
2024/01/15 07:49:03;;;;;;;;;;;;;;;2.13;83.41;98740.66;4195724;28;20360;-69
2024/01/15 07:51:06;;;;;;;;;;;;;;;2.15;83.53;98732.50;4194986;28;20019;-69
2024/01/15 07:53:08;;;;;;;;;;;;;;;2.16;83.45;98742.97;4195218;28;20019;-68
2024/01/15 07:55:10;;;;;;;;;;;;;;;2.16;83.20;98734.97;4195290;28;20011;-69
2024/01/15 07:57:12;;;;;;;;;;;;;;;2.17;83.27;98744.63;4195572;28;20027;-69
2024/01/15 07:59:13;;;;;;;;;;;;;;;2.16;83.29;98742.97;4195168;28;20049;-68
2024/01/15 08:01:15;;;;;;;;;;;;;;;2.17;83.03;98747.28;4195254;28;19929;-69
2024/01/15 08:03:17;;;;;;;;;;;;;;;2.19;83.31;98752.44;4195617;28;20019;-69
2024/01/15 08:05:20;;;;;;;;;;;;;;;2.19;82.99;98743.63;4195152;28;20354;-69
2024/01/15 08:07:24;;;;;;;;;;;;;;;2.19;83.16;98765.75;4194741;28;20019;-69
2024/01/15 08:09:26;;;;;;;;;;;;;;;2.26;83.40;98752.59;4195417;28;19928;-69
2024/01/15 08:11:28;;;;;;;;;;;;;;;2.28;83.25;98742.59;4195305;28;20031;-69
2024/01/15 08:13:30;;;;;;;;;;;;;;;2.28;83.13;98759.41;4195062;28;20015;-69
2024/01/15 08:15:32;;;;;;;;;;;;;;;2.25;83.11;98753.59;4195276;28;20453;-69
2024/01/15 08:17:34;;;;;;;;;;;;;;;2.27;82.97;98767.56;4195104;28;20030;-69
2024/01/15 08:19:36;;;;;;;;;;;;;;;2.27;83.23;98746.25;4195663;28;20578;-69
2024/01/15 08:21:38;;;;;;;;;;;;;;;2.27;82.95;98754.25;4194863;28;20504;-69
2024/01/15 08:23:41;;;;;;;;;;;;;;;2.31;82.90;98739.59;4195269;28;20019;-69
2024/01/15 08:25:43;;;;;;;;;;;;;;;2.29;83.07;98768.25;4195333;28;20346;-69
2024/01/15 08:27:44;;;;;;;;;;;;;;;2.31;83.02;98760.91;4195341;28;20449;-70
2024/01/15 08:29:46;;;;;;;;;;;;;;;2.29;83.06;98749.59;4195470;28;19933;-70
2024/01/15 08:31:48;;;;;;;;;;;;;;;2.32;83.03;98763.38;4194737;28;20030;-69
2024/01/15 08:33:49;;;;;;;;;;;;;;;2.31;82.98;98764.38;4195602;28;20467;-69
2024/01/15 08:35:51;;;;;;;;;;;;;;;2.30;82.71;98752.09;4195305;28;20027;-70
2024/01/15 08:37:53;;;;;;;;;;;;;;;2.29;83.21;98752.25;4195398;28;20015;-70
2024/01/15 08:39:57;;;;;;;;;;;;;;;2.33;83.20;98756.22;4195344;28;20465;-69
2024/01/15 08:41:59;;;;;;;;;;;;;;;2.31;83.25;98748.41;4194430;28;20374;-69
2024/01/15 08:44:01;;;;;;;;;;;;;;;2.33;83.04;98769.53;4194977;28;20367;-69
2024/01/15 08:46:03;;;;;;;;;;;;;;;2.37;83.26;98759.34;4194770;28;20019;-69
2024/01/15 08:48:05;;;;;;;;;;;;;;;2.35;83.13;98743.53;4195589;28;20410;-69
2024/01/15 08:50:09;;;;;;;;;;;;;;;2.33;83.04;98759.69;4198375;28;20039;-69
2024/01/15 08:52:11;;;;;;;;;;;;;;;2.33;83.26;98778.34;4197949;28;20044;-68
2024/01/15 08:54:13;;;;;;;;;;;;;;;2.38;83.02;98753.84;4198428;28;20027;-68
2024/01/15 08:56:15;;;;;;;;;;;;;;;2.37;82.97;98762.88;4198327;28;20011;-69
2024/01/15 08:58:18;;;;;;;;;;;;;;;2.36;82.98;98763.88;4197815;28;20019;-68
2024/01/15 09:00:20;;;;;;;;;;;;;;;2.39;82.85;98749.38;4197961;28;20032;-68
2024/01/15 09:02:21;;;;;;;;;;;;;;;2.40;83.05;98757.19;4197568;28;20024;-68
2024/01/15 09:04:24;;;;;;;;;;;;;;;2.41;82.84;98768.69;4197902;28;20023;-68
2024/01/15 09:06:26;;;;;;;;;;;;;;;2.44;83.03;98763.00;4198267;28;20477;-68
2024/01/15 09:08:28;;;;;;;;;;;;;;;2.45;82.67;98746.84;4198230;28;20037;-68
2024/01/15 09:10:30;;;;;;;;;;;;;;;2.49;82.64;98768.63;4197334;28;19973;-70
2024/01/15 09:12:33;;;;;;;;;;;;;;;2.46;82.35;98772.50;4197791;28;20027;-70
2024/01/15 09:14:35;;;;;;;;;;;;;;;2.48;82.31;98769.66;4197816;28;19988;-69
2024/01/15 09:16:37;;;;;;;;;;;;;;;2.45;82.46;98768.16;4198380;28;20039;-70
2024/01/15 09:18:39;;;;;;;;;;;;;;;2.47;82.48;98770.66;4197975;28;20007;-70
2024/01/15 09:20:41;;;;;;;;;;;;;;;2.50;82.48;98776.47;4197348;28;20039;-70
2024/01/15 09:22:44;;;;;;;;;;;;;;;2.48;82.63;98783.81;4163567;28;20379;-68
2024/01/15 09:24:47;;;;;;;;;;;;;;;2.48;82.68;98777.66;4197916;28;20466;-70
2024/01/15 09:26:49;;;;;;;;;;;;;;;2.49;82.63;98781.97;4180004;28;20413;-70
2024/01/15 09:28:52;;;;;;;;;;;;;;;2.50;82.56;98804.94;4197811;28;20019;-70
2024/01/15 09:30:54;;;;;;;;;;;;;;;2.48;82.45;98783.81;4197383;28;20023;-70
2024/01/15 09:32:57;;;;;;;;;;;;;;;2.47;82.54;98779.47;4197785;28;19967;-70
2024/01/15 09:34:59;;;;;;;;;;;;;;;2.49;82.55;98793.47;4197847;28;20027;-70
2024/01/15 09:37:01;;;;;;;;;;;;;;;2.49;82.88;98796.13;4195692;28;20029;-70
2024/01/15 09:39:03;;;;;;;;;;;;;;;2.50;82.55;98810.28;4197089;28;20011;-68
2024/01/15 09:41:05;;;;;;;;;;;;;;;2.48;82.83;98806.97;4197291;28;20031;-71
2024/01/15 09:43:07;;;;;;;;;;;;;;;2.49;82.93;98808.59;4197099;28;20027;-68
2024/01/15 09:45:10;;;;;;;;;;;;;;;2.47;83.15;98805.28;4197289;28;20031;-69
2024/01/15 09:47:15;;;;;;;;;;;;;;;2.46;83.03;98804.47;4197559;28;20031;-69
2024/01/15 09:49:18;;;;;;;;;;;;;;;2.46;82.89;98803.63;4179410;28;20357;-69
2024/01/15 09:51:20;;;;;;;;;;;;;;;2.46;83.14;98801.81;4197246;28;19928;-69
2024/01/15 09:53:22;;;;;;;;;;;;;;;2.46;83.05;98799.16;4197586;28;20018;-69
2024/01/15 09:55:24;;;;;;;;;;;;;;;2.45;83.22;98791.31;4196587;28;20051;-69
2024/01/15 09:57:26;;;;;;;;;;;;;;;2.46;83.33;98792.97;4197359;28;20376;-69
2024/01/15 09:59:28;;;;;;;;;;;;;;;2.47;83.00;98779.47;4197044;28;20025;-69
2024/01/15 10:01:31;;;;;;;;;;;;;;;2.47;82.88;98779.47;4196807;28;20028;-69
2024/01/15 10:03:32;;;;;;;;;;;;;;;2.49;83.20;98750.84;4196681;28;20019;-69
2024/01/15 10:05:34;;;;;;;;;;;;;;;2.51;82.75;98767.47;4179671;28;19975;-69
2024/01/15 10:07:36;;;;;;;;;;;;;;;2.51;83.10;98778.13;4197431;28;20403;-68
2024/01/15 10:09:37;;;;;;;;;;;;;;;2.51;82.72;98775.47;4196977;28;20040;-69
2024/01/15 10:11:40;;;;;;;;;;;;;;;2.49;83.03;98761.50;4195035;28;20374;-69
2024/01/15 10:13:42;;;;;;;;;;;;;;;2.52;83.00;98789.59;4196083;28;20368;-69
2024/01/15 10:15:46;;;;;;;;;;;;;;;2.54;83.13;98782.28;4196765;28;20030;-69
2024/01/15 10:17:50;;;;;;;;;;;;;;;2.56;82.82;98768.78;4196484;28;20014;-68
2024/01/15 10:19:51;;;;;;;;;;;;;;;2.59;82.49;98784.44;4170949;28;20485;-69
2024/01/15 10:21:52;;;;;;;;;;;;;;;2.57;82.66;98773.94;4196977;28;19931;-69
2024/01/15 10:23:54;;;;;;;;;;;;;;;2.58;82.64;98772.09;4196705;28;20011;-69
2024/01/15 10:25:57;;;;;;;;;;;;;;;2.60;82.84;98770.09;4179278;28;19975;-69
2024/01/15 10:27:59;;;;;;;;;;;;;;;2.61;82.51;98764.59;4197188;28;20019;-69
2024/01/15 10:30:02;;;;;;;;;;;;;;;2.61;82.63;98758.44;4196691;28;20015;-68
2024/01/15 10:32:04;;;;;;;;;;;;;;;2.61;82.39;98755.75;4196015;28;19960;-69
2024/01/15 10:34:15;;;;;;;;;;;;;;;2.63;82.37;98791.06;4196811;28;20007;-69
2024/01/15 10:36:17;;;;;;;;;;;;;;;2.64;82.42;98782.06;4196868;28;20019;-69
2024/01/15 10:38:21;;;;;;;;;;;;;;;2.63;82.31;98754.59;4167825;28;20024;-69
2024/01/15 10:40:24;;;;;;;;;;;;;;;2.66;82.36;98761.41;4196365;28;20023;-69
2024/01/15 10:42:26;;;;;;;;;;;;;;;2.67;82.39;98774.56;4196530;28;20019;-69
2024/01/15 10:44:28;;;;;;;;;;;;;;;2.67;82.09;98765.72;4196448;28;20473;-69